Terminal Aerodrome Forecast
Issued by NWS Melbourne, FL

Home | Current Version | Previous Version | Text Only | Print | Product List | Glossary On
Versions: 1 2 3 4 5 6 7 8 9 10 11 12 13 14 15 16
000
FTUS42 KMLB 252331
TAFDAB
TAF
KDAB 252331Z 2600/2624 24006KT P6SM FEW050 SCT300
     FM260300 23002KT P6SM FEW050 SCT300
     FM261700 17005KT P6SM SCT025 SCT300
     FM262000 12008KT P6SM SCT050 SCT300=

USA.gov is the U.S. government's official web portal to all federal, state and local government web resources and services.